sensor_id;sensor_type;location;lat;lon;timestamp;pressure;altitude;pressure_sealevel;temperature;humidity
77823;BME280;67013;49.730;17.292;2023-04-29T00:00:37;98078.67;;;11.64;57.89
77823;BME280;67013;49.730;17.292;2023-04-29T00:03:06;98079.36;;;11.64;57.68
77823;BME280;67013;49.730;17.292;2023-04-29T00:05:36;98078.91;;;11.65;57.77
77823;BME280;67013;49.730;17.292;2023-04-29T00:08:06;98077.93;;;11.66;57.74
77823;BME280;67013;49.730;17.292;2023-04-29T00:10:36;98078.12;;;11.67;57.73
77823;BME280;67013;49.730;17.292;2023-04-29T00:13:06;98084.48;;;11.67;57.65
77823;BME280;67013;49.730;17.292;2023-04-29T00:15:36;98079.42;;;11.68;57.89
77823;BME280;67013;49.730;17.292;2023-04-29T00:18:07;98079.02;;;11.68;57.91
77823;BME280;67013;49.730;17.292;2023-04-29T00:20:37;98077.55;;;11.69;57.84
77823;BME280;67013;49.730;17.292;2023-04-29T00:23:07;98076.80;;;11.70;57.85
77823;BME280;67013;49.730;17.292;2023-04-29T00:25:36;98077.67;;;11.70;57.77
77823;BME280;67013;49.730;17.292;2023-04-29T00:28:06;98074.44;;;11.69;57.67
77823;BME280;67013;49.730;17.292;2023-04-29T00:30:36;98073.55;;;11.69;57.74
77823;BME280;67013;49.730;17.292;2023-04-29T00:33:05;98073.92;;;11.69;57.71
77823;BME280;67013;49.730;17.292;2023-04-29T00:35:35;98074.91;;;11.68;58.00
77823;BME280;67013;49.730;17.292;2023-04-29T00:38:04;98073.45;;;11.66;58.26
77823;BME280;67013;49.730;17.292;2023-04-29T00:40:34;98067.73;;;11.65;58.85
77823;BME280;67013;49.730;17.292;2023-04-29T00:43:03;98062.86;;;11.64;59.02
77823;BME280;67013;49.730;17.292;2023-04-29T00:45:33;98064.66;;;11.60;59.37
77823;BME280;67013;49.730;17.292;2023-04-29T00:48:03;98062.10;;;11.58;59.51
77823;BME280;67013;49.730;17.292;2023-04-29T00:50:33;98061.84;;;11.57;59.98
77823;BME280;67013;49.730;17.292;2023-04-29T00:53:03;98061.98;;;11.57;59.94
77823;BME280;67013;49.730;17.292;2023-04-29T00:55:35;98062.13;;;11.58;60.32
77823;BME280;67013;49.730;17.292;2023-04-29T00:58:05;98064.96;;;11.57;60.19
77823;BME280;67013;49.730;17.292;2023-04-29T01:00:34;98061.41;;;11.58;60.38
77823;BME280;67013;49.730;17.292;2023-04-29T01:03:05;98060.23;;;11.59;60.54
77823;BME280;67013;49.730;17.292;2023-04-29T01:05:35;98057.87;;;11.60;60.53
77823;BME280;67013;49.730;17.292;2023-04-29T01:08:19;98056.50;;;11.62;60.72
77823;BME280;67013;49.730;17.292;2023-04-29T01:11:04;98053.72;;;11.62;60.54
77823;BME280;67013;49.730;17.292;2023-04-29T01:13:40;98052.67;;;11.62;60.68
77823;BME280;67013;49.730;17.292;2023-04-29T01:16:15;98052.08;;;11.61;60.92
77823;BME280;67013;49.730;17.292;2023-04-29T01:18:52;98051.30;;;11.60;60.89
77823;BME280;67013;49.730;17.292;2023-04-29T01:21:23;98050.77;;;11.58;60.95
77823;BME280;67013;49.730;17.292;2023-04-29T01:23:53;98052.06;;;11.55;61.05
77823;BME280;67013;49.730;17.292;2023-04-29T01:26:24;98053.60;;;11.56;61.01
77823;BME280;67013;49.730;17.292;2023-04-29T01:29:01;98051.14;;;11.56;61.06
77823;BME280;67013;49.730;17.292;2023-04-29T01:31:40;98051.11;;;11.54;61.01
77823;BME280;67013;49.730;17.292;2023-04-29T01:34:18;98049.52;;;11.54;61.09
77823;BME280;67013;49.730;17.292;2023-04-29T01:36:55;98045.84;;;11.53;61.19
77823;BME280;67013;49.730;17.292;2023-04-29T01:39:36;98045.55;;;11.52;61.20
77823;BME280;67013;49.730;17.292;2023-04-29T01:42:13;98043.76;;;11.50;61.21
77823;BME280;67013;49.730;17.292;2023-04-29T01:44:44;98045.61;;;11.49;61.15
77823;BME280;67013;49.730;17.292;2023-04-29T01:47:16;98039.72;;;11.49;61.46
77823;BME280;67013;49.730;17.292;2023-04-29T01:49:46;98040.88;;;11.49;61.41
77823;BME280;67013;49.730;17.292;2023-04-29T01:52:17;98041.38;;;11.52;61.37
77823;BME280;67013;49.730;17.292;2023-04-29T01:54:47;98032.70;;;11.53;61.45
77823;BME280;67013;49.730;17.292;2023-04-29T01:57:16;98032.53;;;11.58;61.35
77823;BME280;67013;49.730;17.292;2023-04-29T01:59:46;98027.02;;;11.59;61.40
77823;BME280;67013;49.730;17.292;2023-04-29T02:02:16;98022.34;;;11.57;61.21
77823;BME280;67013;49.730;17.292;2023-04-29T02:04:48;98018.17;;;11.54;61.47
77823;BME280;67013;49.730;17.292;2023-04-29T02:07:17;98014.38;;;11.52;61.40
77823;BME280;67013;49.730;17.292;2023-04-29T02:09:47;98017.79;;;11.46;61.32
77823;BME280;67013;49.730;17.292;2023-04-29T02:12:17;98019.85;;;11.43;61.51
77823;BME280;67013;49.730;17.292;2023-04-29T02:14:46;98016.42;;;11.38;61.52
77823;BME280;67013;49.730;17.292;2023-04-29T02:17:16;98016.02;;;11.34;61.64
77823;BME280;67013;49.730;17.292;2023-04-29T02:19:45;98017.68;;;11.33;61.98
77823;BME280;67013;49.730;17.292;2023-04-29T02:22:15;98014.52;;;11.31;62.08
77823;BME280;67013;49.730;17.292;2023-04-29T02:24:44;98010.73;;;11.30;61.97
77823;BME280;67013;49.730;17.292;2023-04-29T02:27:14;98007.53;;;11.29;62.19
77823;BME280;67013;49.730;17.292;2023-04-29T02:29:43;98004.14;;;11.30;62.01
77823;BME280;67013;49.730;17.292;2023-04-29T02:32:13;98001.20;;;11.32;62.04
77823;BME280;67013;49.730;17.292;2023-04-29T02:34:43;98003.80;;;11.35;61.93
77823;BME280;67013;49.730;17.292;2023-04-29T02:37:13;98007.84;;;11.38;61.81
77823;BME280;67013;49.730;17.292;2023-04-29T02:39:42;98014.50;;;11.42;61.98
77823;BME280;67013;49.730;17.292;2023-04-29T02:42:12;98013.16;;;11.45;61.88
77823;BME280;67013;49.730;17.292;2023-04-29T02:44:42;98010.64;;;11.49;61.65
77823;BME280;67013;49.730;17.292;2023-04-29T02:47:11;98010.68;;;11.50;61.68
77823;BME280;67013;49.730;17.292;2023-04-29T02:49:41;98006.68;;;11.52;61.69
77823;BME280;67013;49.730;17.292;2023-04-29T02:52:10;97999.59;;;11.52;61.64
77823;BME280;67013;49.730;17.292;2023-04-29T02:54:41;97997.20;;;11.49;61.66
77823;BME280;67013;49.730;17.292;2023-04-29T02:57:10;98001.52;;;11.47;61.75
77823;BME280;67013;49.730;17.292;2023-04-29T02:59:40;98000.52;;;11.44;61.74
77823;BME280;67013;49.730;17.292;2023-04-29T03:02:09;98000.89;;;11.42;61.96
77823;BME280;67013;49.730;17.292;2023-04-29T03:04:39;97998.85;;;11.40;61.87
77823;BME280;67013;49.730;17.292;2023-04-29T03:07:09;97993.32;;;11.37;62.11
77823;BME280;67013;49.730;17.292;2023-04-29T03:09:38;97994.13;;;11.36;62.31
77823;BME280;67013;49.730;17.292;2023-04-29T03:12:08;97998.12;;;11.34;62.28
77823;BME280;67013;49.730;17.292;2023-04-29T03:14:38;98007.86;;;11.31;62.37
77823;BME280;67013;49.730;17.292;2023-04-29T03:17:08;98011.23;;;11.33;62.51
77823;BME280;67013;49.730;17.292;2023-04-29T03:19:37;98013.60;;;11.36;62.37
77823;BME280;67013;49.730;17.292;2023-04-29T03:22:07;98019.02;;;11.40;62.36
77823;BME280;67013;49.730;17.292;2023-04-29T03:24:39;98019.63;;;11.43;62.25
77823;BME280;67013;49.730;17.292;2023-04-29T03:27:09;98022.20;;;11.46;62.34
77823;BME280;67013;49.730;17.292;2023-04-29T03:29:39;98022.48;;;11.48;62.16
77823;BME280;67013;49.730;17.292;2023-04-29T03:32:08;98021.05;;;11.51;62.18
77823;BME280;67013;49.730;17.292;2023-04-29T03:34:38;98022.09;;;11.53;62.14
77823;BME280;67013;49.730;17.292;2023-04-29T03:37:08;98019.66;;;11.55;61.85
77823;BME280;67013;49.730;17.292;2023-04-29T03:39:37;98026.04;;;11.54;61.92
77823;BME280;67013;49.730;17.292;2023-04-29T03:42:07;98025.04;;;11.54;62.23
77823;BME280;67013;49.730;17.292;2023-04-29T03:44:36;98026.77;;;11.54;62.03
77823;BME280;67013;49.730;17.292;2023-04-29T03:47:06;98026.48;;;11.53;62.04
77823;BME280;67013;49.730;17.292;2023-04-29T03:49:35;98033.03;;;11.54;62.08
77823;BME280;67013;49.730;17.292;2023-04-29T03:52:05;98039.79;;;11.54;62.06
77823;BME280;67013;49.730;17.292;2023-04-29T03:54:35;98042.70;;;11.55;62.19
77823;BME280;67013;49.730;17.292;2023-04-29T03:57:04;98044.08;;;11.55;62.26
77823;BME280;67013;49.730;17.292;2023-04-29T03:59:34;98048.84;;;11.56;62.28
77823;BME280;67013;49.730;17.292;2023-04-29T04:02:03;98050.20;;;11.57;62.25
77823;BME280;67013;49.730;17.292;2023-04-29T04:04:33;98046.84;;;11.57;62.19
77823;BME280;67013;49.730;17.292;2023-04-29T04:07:02;98047.69;;;11.59;62.21
77823;BME280;67013;49.730;17.292;2023-04-29T04:09:33;98051.58;;;11.63;62.10
77823;BME280;67013;49.730;17.292;2023-04-29T04:12:02;98050.92;;;11.67;62.25
77823;BME280;67013;49.730;17.292;2023-04-29T04:14:32;98049.91;;;11.71;62.23
77823;BME280;67013;49.730;17.292;2023-04-29T04:17:02;98045.77;;;11.74;62.03
77823;BME280;67013;49.730;17.292;2023-04-29T04:19:32;98041.75;;;11.77;62.18
77823;BME280;67013;49.730;17.292;2023-04-29T04:22:03;98038.89;;;11.80;62.13
77823;BME280;67013;49.730;17.292;2023-04-29T04:24:32;98036.10;;;11.82;62.16
77823;BME280;67013;49.730;17.292;2023-04-29T04:27:02;98032.34;;;11.83;62.23
77823;BME280;67013;49.730;17.292;2023-04-29T04:29:32;98025.61;;;11.85;62.25
77823;BME280;67013;49.730;17.292;2023-04-29T04:32:01;98028.89;;;11.85;62.35
77823;BME280;67013;49.730;17.292;2023-04-29T04:34:31;98026.04;;;11.86;62.23
77823;BME280;67013;49.730;17.292;2023-04-29T04:37:00;98026.14;;;11.86;62.44
77823;BME280;67013;49.730;17.292;2023-04-29T04:39:30;98027.46;;;11.85;62.29
77823;BME280;67013;49.730;17.292;2023-04-29T04:41:59;98031.03;;;11.84;62.27
77823;BME280;67013;49.730;17.292;2023-04-29T04:44:30;98030.84;;;11.84;62.60
77823;BME280;67013;49.730;17.292;2023-04-29T04:47:00;98031.36;;;11.84;62.44
77823;BME280;67013;49.730;17.292;2023-04-29T04:49:30;98026.55;;;11.86;62.47
77823;BME280;67013;49.730;17.292;2023-04-29T04:52:00;98022.27;;;11.87;62.48
77823;BME280;67013;49.730;17.292;2023-04-29T04:54:30;98016.91;;;11.90;62.56
77823;BME280;67013;49.730;17.292;2023-04-29T04:56:59;98017.55;;;11.95;62.50
77823;BME280;67013;49.730;17.292;2023-04-29T04:59:30;98013.32;;;12.00;62.49
77823;BME280;67013;49.730;17.292;2023-04-29T05:01:59;98007.52;;;12.05;62.47
77823;BME280;67013;49.730;17.292;2023-04-29T05:04:29;98006.76;;;12.10;62.58
77823;BME280;67013;49.730;17.292;2023-04-29T05:06:58;98009.80;;;12.13;62.36
77823;BME280;67013;49.730;17.292;2023-04-29T05:09:28;98010.33;;;12.15;62.04
77823;BME280;67013;49.730;17.292;2023-04-29T05:11:57;98008.29;;;12.15;61.95
77823;BME280;67013;49.730;17.292;2023-04-29T05:14:27;98010.58;;;12.12;61.95
77823;BME280;67013;49.730;17.292;2023-04-29T05:17:00;98015.29;;;12.10;61.93
77823;BME280;67013;49.730;17.292;2023-04-29T05:19:29;98016.59;;;12.07;61.92
77823;BME280;67013;49.730;17.292;2023-04-29T05:21:59;98017.24;;;12.05;62.00
77823;BME280;67013;49.730;17.292;2023-04-29T05:24:28;98018.60;;;12.03;62.03
77823;BME280;67013;49.730;17.292;2023-04-29T05:26:58;98019.79;;;12.02;61.89
77823;BME280;67013;49.730;17.292;2023-04-29T05:29:27;98019.60;;;12.00;62.00
77823;BME280;67013;49.730;17.292;2023-04-29T05:31:57;98022.95;;;11.99;61.88
77823;BME280;67013;49.730;17.292;2023-04-29T05:34:26;98026.79;;;11.97;62.05
77823;BME280;67013;49.730;17.292;2023-04-29T05:36:56;98025.65;;;11.96;61.96
77823;BME280;67013;49.730;17.292;2023-04-29T05:39:25;98026.67;;;11.99;62.08
77823;BME280;67013;49.730;17.292;2023-04-29T05:41:54;98032.77;;;12.03;61.91
77823;BME280;67013;49.730;17.292;2023-04-29T05:44:24;98033.98;;;12.07;61.95
77823;BME280;67013;49.730;17.292;2023-04-29T05:46:53;98040.35;;;12.12;61.83
77823;BME280;67013;49.730;17.292;2023-04-29T05:49:23;98042.16;;;12.16;61.74
77823;BME280;67013;49.730;17.292;2023-04-29T05:51:52;98045.35;;;12.19;61.67
77823;BME280;67013;49.730;17.292;2023-04-29T05:54:22;98049.20;;;12.23;61.72
77823;BME280;67013;49.730;17.292;2023-04-29T05:56:51;98047.50;;;12.26;61.55
77823;BME280;67013;49.730;17.292;2023-04-29T05:59:21;98050.58;;;12.29;61.32
77823;BME280;67013;49.730;17.292;2023-04-29T06:01:51;98051.52;;;12.32;61.40
77823;BME280;67013;49.730;17.292;2023-04-29T06:04:20;98052.39;;;12.34;61.31
77823;BME280;67013;49.730;17.292;2023-04-29T06:06:50;98056.39;;;12.34;61.33
77823;BME280;67013;49.730;17.292;2023-04-29T06:09:20;98051.84;;;12.35;61.36
77823;BME280;67013;49.730;17.292;2023-04-29T06:11:52;98056.96;;;12.34;61.41
77823;BME280;67013;49.730;17.292;2023-04-29T06:14:22;98052.50;;;12.33;61.54
77823;BME280;67013;49.730;17.292;2023-04-29T06:16:51;98049.00;;;12.29;61.52
77823;BME280;67013;49.730;17.292;2023-04-29T06:19:21;98052.92;;;12.26;61.57
77823;BME280;67013;49.730;17.292;2023-04-29T06:21:52;98058.55;;;12.24;61.72
77823;BME280;67013;49.730;17.292;2023-04-29T06:24:22;98056.37;;;12.23;61.80
77823;BME280;67013;49.730;17.292;2023-04-29T06:26:51;98056.05;;;12.22;61.90
77823;BME280;67013;49.730;17.292;2023-04-29T06:29:21;98057.08;;;12.22;61.89
77823;BME280;67013;49.730;17.292;2023-04-29T06:31:50;98050.95;;;12.27;62.05
77823;BME280;67013;49.730;17.292;2023-04-29T06:34:21;98048.61;;;12.31;62.13
77823;BME280;67013;49.730;17.292;2023-04-29T06:36:50;98047.41;;;12.35;62.11
77823;BME280;67013;49.730;17.292;2023-04-29T06:39:20;98046.33;;;12.42;62.24
77823;BME280;67013;49.730;17.292;2023-04-29T06:41:49;98043.54;;;12.48;62.13
77823;BME280;67013;49.730;17.292;2023-04-29T06:44:19;98047.39;;;12.54;62.07
77823;BME280;67013;49.730;17.292;2023-04-29T06:46:49;98040.59;;;12.58;61.88
77823;BME280;67013;49.730;17.292;2023-04-29T06:49:18;98041.35;;;12.61;61.82
77823;BME280;67013;49.730;17.292;2023-04-29T06:51:48;98045.54;;;12.61;61.60
77823;BME280;67013;49.730;17.292;2023-04-29T06:54:18;98050.22;;;12.61;61.39
77823;BME280;67013;49.730;17.292;2023-04-29T06:56:47;98043.23;;;12.63;61.45
77823;BME280;67013;49.730;17.292;2023-04-29T06:59:17;98038.92;;;12.65;61.41
77823;BME280;67013;49.730;17.292;2023-04-29T07:01:46;98042.65;;;12.68;61.59
77823;BME280;67013;49.730;17.292;2023-04-29T07:04:15;98040.64;;;12.74;61.48
77823;BME280;67013;49.730;17.292;2023-04-29T07:06:45;98041.02;;;12.79;61.33
77823;BME280;67013;49.730;17.292;2023-04-29T07:09:14;98044.34;;;12.81;61.15
77823;BME280;67013;49.730;17.292;2023-04-29T07:11:44;98048.01;;;12.83;60.95
77823;BME280;67013;49.730;17.292;2023-04-29T07:14:14;98048.57;;;12.83;60.74
77823;BME280;67013;49.730;17.292;2023-04-29T07:16:43;98042.59;;;12.79;60.85
77823;BME280;67013;49.730;17.292;2023-04-29T07:19:12;98045.71;;;12.75;60.93
77823;BME280;67013;49.730;17.292;2023-04-29T07:21:42;98044.95;;;12.75;61.02
77823;BME280;67013;49.730;17.292;2023-04-29T07:24:11;98039.96;;;12.76;61.11
77823;BME280;67013;49.730;17.292;2023-04-29T07:26:43;98043.00;;;12.78;61.10
77823;BME280;67013;49.730;17.292;2023-04-29T07:29:11;98041.65;;;12.84;61.04
77823;BME280;67013;49.730;17.292;2023-04-29T07:31:41;98049.58;;;12.87;60.97
77823;BME280;67013;49.730;17.292;2023-04-29T07:34:10;98048.02;;;12.89;60.78
77823;BME280;67013;49.730;17.292;2023-04-29T07:36:40;98056.91;;;12.89;60.67
77823;BME280;67013;49.730;17.292;2023-04-29T07:39:09;98057.52;;;12.88;60.62
77823;BME280;67013;49.730;17.292;2023-04-29T07:41:42;98058.29;;;12.87;60.84
77823;BME280;67013;49.730;17.292;2023-04-29T07:44:11;98054.60;;;12.88;60.90
77823;BME280;67013;49.730;17.292;2023-04-29T07:46:41;98056.27;;;12.86;61.07
77823;BME280;67013;49.730;17.292;2023-04-29T07:49:10;98059.90;;;12.85;61.47
77823;BME280;67013;49.730;17.292;2023-04-29T07:51:42;98062.51;;;12.83;61.58
77823;BME280;67013;49.730;17.292;2023-04-29T07:54:12;98066.69;;;12.81;62.02
77823;BME280;67013;49.730;17.292;2023-04-29T07:56:41;98065.67;;;12.77;62.53
77823;BME280;67013;49.730;17.292;2023-04-29T07:59:11;98067.36;;;12.74;63.06
77823;BME280;67013;49.730;17.292;2023-04-29T08:01:41;98070.17;;;12.73;63.69
77823;BME280;67013;49.730;17.292;2023-04-29T08:04:10;98076.56;;;12.74;64.22
77823;BME280;67013;49.730;17.292;2023-04-29T08:06:40;98080.02;;;12.72;64.64
77823;BME280;67013;49.730;17.292;2023-04-29T08:09:10;98083.40;;;12.69;65.03
77823;BME280;67013;49.730;17.292;2023-04-29T08:11:39;98086.55;;;12.65;65.31
77823;BME280;67013;49.730;17.292;2023-04-29T08:14:08;98088.27;;;12.61;65.49
77823;BME280;67013;49.730;17.292;2023-04-29T08:16:38;98090.92;;;12.57;65.76
77823;BME280;67013;49.730;17.292;2023-04-29T08:19:07;98101.02;;;12.51;66.10
77823;BME280;67013;49.730;17.292;2023-04-29T08:21:37;98108.98;;;12.46;66.73
77823;BME280;67013;49.730;17.292;2023-04-29T08:24:06;98125.77;;;12.43;67.35
77823;BME280;67013;49.730;17.292;2023-04-29T08:26:36;98133.73;;;12.42;67.90
77823;BME280;67013;49.730;17.292;2023-04-29T08:29:05;98138.95;;;12.42;68.18
77823;BME280;67013;49.730;17.292;2023-04-29T08:31:35;98135.96;;;12.42;68.41
77823;BME280;67013;49.730;17.292;2023-04-29T08:34:04;98133.88;;;12.40;68.55
77823;BME280;67013;49.730;17.292;2023-04-29T08:36:33;98135.02;;;12.39;68.75
77823;BME280;67013;49.730;17.292;2023-04-29T08:39:05;98133.30;;;12.36;68.95
77823;BME280;67013;49.730;17.292;2023-04-29T08:41:37;98137.30;;;12.34;69.23
77823;BME280;67013;49.730;17.292;2023-04-29T08:44:06;98133.30;;;12.32;69.16
77823;BME280;67013;49.730;17.292;2023-04-29T08:46:37;98134.41;;;12.32;69.41
77823;BME280;67013;49.730;17.292;2023-04-29T08:49:07;98133.08;;;12.33;69.43
77823;BME280;67013;49.730;17.292;2023-04-29T08:51:36;98132.09;;;12.36;69.32
77823;BME280;67013;49.730;17.292;2023-04-29T08:54:06;98128.25;;;12.41;69.55
77823;BME280;67013;49.730;17.292;2023-04-29T08:56:37;98114.86;;;12.40;69.81
77823;BME280;67013;49.730;17.292;2023-04-29T08:59:08;98107.77;;;12.38;70.22
77823;BME280;67013;49.730;17.292;2023-04-29T09:01:41;98107.02;;;12.34;70.13
77823;BME280;67013;49.730;17.292;2023-04-29T09:04:18;98102.50;;;12.31;70.30
77823;BME280;67013;49.730;17.292;2023-04-29T09:06:50;98104.09;;;12.29;70.54
77823;BME280;67013;49.730;17.292;2023-04-29T09:09:21;98097.05;;;12.30;70.32
77823;BME280;67013;49.730;17.292;2023-04-29T09:11:50;98097.11;;;12.31;70.23
77823;BME280;67013;49.730;17.292;2023-04-29T09:14:20;98099.92;;;12.35;70.39
77823;BME280;67013;49.730;17.292;2023-04-29T09:16:51;98107.38;;;12.40;70.38
77823;BME280;67013;49.730;17.292;2023-04-29T09:19:34;98118.98;;;12.45;70.19
77823;BME280;67013;49.730;17.292;2023-04-29T09:22:04;98118.73;;;12.48;70.52
77823;BME280;67013;49.730;17.292;2023-04-29T09:24:35;98119.64;;;12.51;70.41
77823;BME280;67013;49.730;17.292;2023-04-29T09:27:05;98117.50;;;12.56;70.38
77823;BME280;67013;49.730;17.292;2023-04-29T09:29:36;98112.50;;;12.57;69.75
77823;BME280;67013;49.730;17.292;2023-04-29T09:32:20;98106.26;;;12.55;69.88
77823;BME280;67013;49.730;17.292;2023-04-29T09:34:49;98105.51;;;12.54;69.64
77823;BME280;67013;49.730;17.292;2023-04-29T09:37:25;98100.50;;;12.51;70.05
77823;BME280;67013;49.730;17.292;2023-04-29T09:39:56;98098.17;;;12.52;70.04
77823;BME280;67013;49.730;17.292;2023-04-29T09:42:25;98097.11;;;12.56;70.31
77823;BME280;67013;49.730;17.292;2023-04-29T09:44:55;98095.02;;;12.62;70.34
77823;BME280;67013;49.730;17.292;2023-04-29T09:47:31;98093.77;;;12.70;70.16
77823;BME280;67013;49.730;17.292;2023-04-29T09:50:11;98094.71;;;12.84;70.34
77823;BME280;67013;49.730;17.292;2023-04-29T09:52:43;98091.25;;;12.95;69.74
77823;BME280;67013;49.730;17.292;2023-04-29T09:55:13;98087.35;;;13.06;70.00
77823;BME280;67013;49.730;17.292;2023-04-29T09:57:44;98085.10;;;13.16;70.33
77823;BME280;67013;49.730;17.292;2023-04-29T10:00:14;98091.45;;;13.29;70.30
77823;BME280;67013;49.730;17.292;2023-04-29T10:02:46;98094.74;;;13.43;70.03
77823;BME280;67013;49.730;17.292;2023-04-29T10:05:17;98100.02;;;13.56;69.76
77823;BME280;67013;49.730;17.292;2023-04-29T10:07:48;98101.96;;;13.69;69.55
77823;BME280;67013;49.730;17.292;2023-04-29T10:10:19;98094.73;;;13.84;69.13
77823;BME280;67013;49.730;17.292;2023-04-29T10:12:49;98095.54;;;13.98;68.88
77823;BME280;67013;49.730;17.292;2023-04-29T10:15:26;98089.67;;;14.12;68.90
77823;BME280;67013;49.730;17.292;2023-04-29T10:18:02;98089.91;;;14.26;68.47
77823;BME280;67013;49.730;17.292;2023-04-29T10:20:35;98090.29;;;14.41;68.92
77823;BME280;67013;49.730;17.292;2023-04-29T10:23:06;98088.33;;;14.63;68.57
77823;BME280;67013;49.730;17.292;2023-04-29T10:25:36;98090.05;;;14.85;68.02
77823;BME280;67013;49.730;17.292;2023-04-29T10:28:07;98092.98;;;15.06;67.43
77823;BME280;67013;49.730;17.292;2023-04-29T10:30:39;98091.50;;;15.19;66.08
77823;BME280;67013;49.730;17.292;2023-04-29T10:33:11;98091.64;;;15.28;65.69
77823;BME280;67013;49.730;17.292;2023-04-29T10:35:44;98088.06;;;15.38;65.04
77823;BME280;67013;49.730;17.292;2023-04-29T10:38:16;98089.10;;;15.42;64.86
77823;BME280;67013;49.730;17.292;2023-04-29T10:40:50;98087.30;;;15.53;64.68
77823;BME280;67013;49.730;17.292;2023-04-29T10:43:24;98085.95;;;15.69;64.49
77823;BME280;67013;49.730;17.292;2023-04-29T10:46:18;98084.73;;;15.86;64.44
77823;BME280;67013;49.730;17.292;2023-04-29T10:48:49;98085.00;;;15.99;63.68
77823;BME280;67013;49.730;17.292;2023-04-29T10:51:31;98083.11;;;16.11;64.07
77823;BME280;67013;49.730;17.292;2023-04-29T10:54:08;98084.00;;;16.25;64.09
77823;BME280;67013;49.730;17.292;2023-04-29T10:56:41;98080.48;;;16.32;63.09
77823;BME280;67013;49.730;17.292;2023-04-29T10:59:13;98078.75;;;16.32;62.31
77823;BME280;67013;49.730;17.292;2023-04-29T11:01:48;98071.92;;;16.42;62.50
77823;BME280;67013;49.730;17.292;2023-04-29T11:04:19;98068.65;;;16.60;62.08
77823;BME280;67013;49.730;17.292;2023-04-29T11:06:53;98072.64;;;16.79;62.23
77823;BME280;67013;49.730;17.292;2023-04-29T11:09:26;98073.11;;;16.88;61.57
77823;BME280;67013;49.730;17.292;2023-04-29T11:12:00;98069.92;;;16.92;61.17
77823;BME280;67013;49.730;17.292;2023-04-29T11:14:36;98064.10;;;16.94;60.53
77823;BME280;67013;49.730;17.292;2023-04-29T11:17:08;98070.89;;;16.95;60.35
77823;BME280;67013;49.730;17.292;2023-04-29T11:19:42;98069.08;;;16.95;60.25
77823;BME280;67013;49.730;17.292;2023-04-29T11:22:24;98071.07;;;16.88;59.69
77823;BME280;67013;49.730;17.292;2023-04-29T11:24:55;98077.99;;;16.75;60.15
77823;BME280;67013;49.730;17.292;2023-04-29T11:27:29;98074.30;;;16.67;60.34
77823;BME280;67013;49.730;17.292;2023-04-29T11:29:59;98072.80;;;16.61;60.17
77823;BME280;67013;49.730;17.292;2023-04-29T11:32:32;98074.33;;;16.61;60.52
77823;BME280;67013;49.730;17.292;2023-04-29T11:35:10;98078.23;;;16.68;60.74
77823;BME280;67013;49.730;17.292;2023-04-29T11:37:41;98077.25;;;16.77;60.68
77823;BME280;67013;49.730;17.292;2023-04-29T11:40:13;98075.59;;;16.88;60.18
77823;BME280;67013;49.730;17.292;2023-04-29T11:42:45;98075.02;;;16.85;59.75
77823;BME280;67013;49.730;17.292;2023-04-29T11:45:17;98076.38;;;16.82;60.26
77823;BME280;67013;49.730;17.292;2023-04-29T11:47:48;98077.95;;;16.87;60.41
77823;BME280;67013;49.730;17.292;2023-04-29T11:50:18;98072.60;;;16.91;60.30
77823;BME280;67013;49.730;17.292;2023-04-29T11:52:49;98076.75;;;16.90;60.04
77823;BME280;67013;49.730;17.292;2023-04-29T11:55:19;98074.27;;;16.87;60.19
77823;BME280;67013;49.730;17.292;2023-04-29T11:57:50;98075.57;;;16.90;60.34
77823;BME280;67013;49.730;17.292;2023-04-29T12:00:19;98074.60;;;16.91;59.93
77823;BME280;67013;49.730;17.292;2023-04-29T12:02:48;98072.05;;;16.81;59.89
77823;BME280;67013;49.730;17.292;2023-04-29T12:05:18;98076.23;;;16.74;60.03
77823;BME280;67013;49.730;17.292;2023-04-29T12:07:49;98075.52;;;16.65;59.93
77823;BME280;67013;49.730;17.292;2023-04-29T12:10:19;98078.58;;;16.59;60.11
77823;BME280;67013;49.730;17.292;2023-04-29T12:12:49;98082.58;;;16.49;60.32
77823;BME280;67013;49.730;17.292;2023-04-29T12:15:19;98080.59;;;16.38;60.73
77823;BME280;67013;49.730;17.292;2023-04-29T12:17:49;98077.06;;;16.34;60.73
77823;BME280;67013;49.730;17.292;2023-04-29T12:20:19;98082.30;;;16.33;61.01
77823;BME280;67013;49.730;17.292;2023-04-29T12:22:48;98076.52;;;16.31;61.04
77823;BME280;67013;49.730;17.292;2023-04-29T12:25:18;98073.06;;;16.36;61.20
77823;BME280;67013;49.730;17.292;2023-04-29T12:27:49;98067.27;;;16.39;61.23
77823;BME280;67013;49.730;17.292;2023-04-29T12:30:20;98063.26;;;16.43;60.93
77823;BME280;67013;49.730;17.292;2023-04-29T12:32:52;98056.67;;;16.44;60.84
77823;BME280;67013;49.730;17.292;2023-04-29T12:35:20;98055.44;;;16.47;61.15
77823;BME280;67013;49.730;17.292;2023-04-29T12:37:50;98055.27;;;16.50;60.91
77823;BME280;67013;49.730;17.292;2023-04-29T12:40:20;98050.98;;;16.54;60.96
77823;BME280;67013;49.730;17.292;2023-04-29T12:42:51;98048.11;;;16.70;61.33
77823;BME280;67013;49.730;17.292;2023-04-29T12:45:30;98039.29;;;16.87;60.83
77823;BME280;67013;49.730;17.292;2023-04-29T12:48:00;98039.67;;;17.04;60.47
77823;BME280;67013;49.730;17.292;2023-04-29T12:50:32;98041.75;;;17.16;60.14
77823;BME280;67013;49.730;17.292;2023-04-29T12:53:03;98045.48;;;17.22;60.08
77823;BME280;67013;49.730;17.292;2023-04-29T12:55:34;98041.43;;;17.27;59.88
77823;BME280;67013;49.730;17.292;2023-04-29T12:58:05;98030.48;;;17.30;58.76
77823;BME280;67013;49.730;17.292;2023-04-29T13:00:36;98029.63;;;17.33;58.71
77823;BME280;67013;49.730;17.292;2023-04-29T13:03:06;98031.05;;;17.36;58.27
77823;BME280;67013;49.730;17.292;2023-04-29T13:05:35;98032.82;;;17.39;58.42
77823;BME280;67013;49.730;17.292;2023-04-29T13:08:05;98033.05;;;17.43;58.27